KBBB/BBB METAR and TAF weather

Enter ICAO airport designator
Station Type Date Time Source
KBBB METAR 2021/08/04 18:55 UTC NOAA

KBBB 041855Z AUTO 17009KT 10SM CLR 25/17 A3003 RMK AO2


Station Type Date Time Source
KBBB Decoded METAR 2021/08/04 18:55 UTC NOAA

Benson Municipal, MN, United States (KBBB) 45-19N 095-39W
Aug 04, 2021 - 02:55 PM EDT / 2021.08.04 1855 UTC
Wind: from the S (170 degrees) at 10 MPH (9 KT):0
Visibility: 10 mile(s):0
Sky conditions: clear
Temperature: 77 F (25 C)
Dew Point: 62 F (17 C)
Relative Humidity: 61%
Pressure (altimeter): 30.03 in. Hg (1016 hPa)
ob: KBBB 041855Z AUTO 17009KT 10SM CLR 25/17 A3003 RMK AO2
cycle: 19

Station Type Date Time Source
KBBB TAF UTC NOAA

Error!

Example: see airport list